createdAt,value
2023-01-20T00:00:06.023Z,49.93
2023-01-20T00:02:39.041Z,54.87
2023-01-20T00:05:06.458Z,54.40
2023-01-20T00:07:34.959Z,60.40
2023-01-20T00:10:01.731Z,51.83
2023-01-20T00:12:31.239Z,55.30
2023-01-20T00:14:58.210Z,62.20
2023-01-20T00:17:24.876Z,51.47
2023-01-20T00:19:51.479Z,61.90
2023-01-20T00:22:18.136Z,49.50
2023-01-20T00:24:44.739Z,54.00
2023-01-20T00:27:13.436Z,62.47
2023-01-20T00:29:40.036Z,60.03
2023-01-20T00:32:06.711Z,53.10
2023-01-20T00:34:33.324Z,57.77
2023-01-20T00:37:07.565Z,53.33
2023-01-20T00:39:34.297Z,48.87
2023-01-20T00:42:03.125Z,59.70
2023-01-20T00:44:29.743Z,50.73
2023-01-20T00:47:02.457Z,51.13
2023-01-20T00:49:33.741Z,55.67
2023-01-20T00:52:07.551Z,56.90
2023-01-20T00:54:34.185Z,55.80
2023-01-20T00:57:02.844Z,58.30
2023-01-20T00:59:29.453Z,49.20
2023-01-20T01:01:58.525Z,57.53
2023-01-20T01:04:36.409Z,55.83
2023-01-20T01:07:05.562Z,59.13
2023-01-20T01:09:37.773Z,60.50
2023-01-20T01:12:04.478Z,58.37
2023-01-20T01:14:34.022Z,56.33
2023-01-20T01:17:08.067Z,55.97
2023-01-20T01:19:34.721Z,52.67
2023-01-20T01:22:04.346Z,48.97
2023-01-20T01:24:38.426Z,47.27
2023-01-20T01:27:05.095Z,52.43
2023-01-20T01:29:34.450Z,55.20
2023-01-20T01:32:11.530Z,52.60
2023-01-20T01:34:38.222Z,46.17
2023-01-20T01:37:04.896Z,46.10
2023-01-20T01:39:42.868Z,46.30
2023-01-20T01:42:12.325Z,56.57
2023-01-20T01:45:10.949Z,42.53
2023-01-20T01:48:01.034Z,44.27
2023-01-20T01:50:46.045Z,42.53
2023-01-20T01:53:13.931Z,43.93
2023-01-20T01:55:46.426Z,42.27
2023-01-20T01:58:17.320Z,45.30
2023-01-20T02:00:44.270Z,43.37
2023-01-20T02:03:13.541Z,44.03
2023-01-20T02:05:41.575Z,43.60
2023-01-20T02:08:08.612Z,44.87
2023-01-20T02:10:35.266Z,53.63
2023-01-20T02:13:03.342Z,44.20
2023-01-20T02:16:05.336Z,53.43
2023-01-20T02:18:38.416Z,52.50
2023-01-20T02:21:17.216Z,48.07
2023-01-20T02:23:53.436Z,53.60
2023-01-20T02:26:44.473Z,56.67
2023-01-20T02:29:29.996Z,59.73
2023-01-20T02:32:14.010Z,48.53
2023-01-20T02:34:46.668Z,49.83
2023-01-20T02:37:19.950Z,45.80
2023-01-20T02:39:52.488Z,43.77
2023-01-20T02:42:22.829Z,51.43
2023-01-20T02:44:55.442Z,43.30
2023-01-20T02:47:26.474Z,48.23
2023-01-20T02:50:01.542Z,46.40
2023-01-20T02:52:44.370Z,47.10
2023-01-20T02:55:15.584Z,43.57
2023-01-20T02:57:44.785Z,46.93
2023-01-20T03:00:34.293Z,43.90
2023-01-20T03:03:02.545Z,45.53
2023-01-20T03:05:35.793Z,49.43
2023-01-20T03:08:06.106Z,48.83
2023-01-20T03:10:33.865Z,45.50
2023-01-20T03:13:29.678Z,47.13
2023-01-20T03:16:02.675Z,43.30
2023-01-20T03:18:30.115Z,43.03
2023-01-20T03:20:58.058Z,44.00
2023-01-20T03:23:26.515Z,43.13
2023-01-20T03:25:54.007Z,43.57
2023-01-20T03:28:20.579Z,42.43
2023-01-20T03:30:47.241Z,43.93
2023-01-20T03:33:15.186Z,34.77
2023-01-20T03:35:42.334Z,38.20
2023-01-20T03:38:10.085Z,32.30
2023-01-20T03:40:48.954Z,41.70
2023-01-20T03:43:40.615Z,42.07
2023-01-20T03:46:16.177Z,44.00
2023-01-20T03:48:51.050Z,36.83
2023-01-20T03:51:17.615Z,38.50
2023-01-20T03:53:45.933Z,41.70
2023-01-20T03:56:23.097Z,44.77
2023-01-20T03:58:51.788Z,42.23
2023-01-20T04:01:21.902Z,37.90
2023-01-20T04:03:51.041Z,44.63
2023-01-20T04:06:19.763Z,49.87
2023-01-20T04:08:51.180Z,37.97
2023-01-20T04:11:20.379Z,42.23
2023-01-20T04:13:47.129Z,46.90
2023-01-20T04:16:17.979Z,62.80
2023-01-20T04:18:55.515Z,52.27
2023-01-20T04:21:49.004Z,52.10
2023-01-20T04:24:23.875Z,55.00
2023-01-20T04:26:50.499Z,50.73
2023-01-20T04:29:17.219Z,52.50
2023-01-20T04:31:43.831Z,53.53
2023-01-20T04:34:13.032Z,52.47
2023-01-20T04:36:39.649Z,56.60
2023-01-20T04:39:06.245Z,56.03
2023-01-20T04:41:32.918Z,55.50
2023-01-20T04:43:59.550Z,55.07
2023-01-20T04:46:26.247Z,57.80
2023-01-20T04:48:52.925Z,56.23
2023-01-20T04:51:19.578Z,61.17
2023-01-20T04:53:46.249Z,57.00
2023-01-20T04:56:15.973Z,59.93
2023-01-20T04:58:45.892Z,65.43
2023-01-20T05:01:15.388Z,67.10
2023-01-20T05:03:44.953Z,66.60
2023-01-20T05:06:14.534Z,65.47
2023-01-20T05:08:50.168Z,60.97
2023-01-20T05:11:16.866Z,66.53
2023-01-20T05:13:43.593Z,65.30
2023-01-20T05:16:23.882Z,62.97
2023-01-20T05:18:50.834Z,67.17
2023-01-20T05:21:17.478Z,61.73
2023-01-20T05:23:46.603Z,66.50
2023-01-20T05:26:16.045Z,70.63
2023-01-20T05:28:45.672Z,74.90
2023-01-20T05:31:21.556Z,70.57
2023-01-20T05:33:48.368Z,69.70
2023-01-20T05:36:15.006Z,60.10
2023-01-20T05:38:51.795Z,73.13
2023-01-20T05:41:19.538Z,72.00
2023-01-20T05:43:46.179Z,69.40
2023-01-20T05:46:22.120Z,68.97
2023-01-20T05:48:48.721Z,73.70
2023-01-20T05:51:15.300Z,67.40
2023-01-20T05:53:43.987Z,67.57
2023-01-20T05:56:19.663Z,66.60
2023-01-20T05:58:46.318Z,64.30
2023-01-20T06:01:14.216Z,65.07
2023-01-20T06:03:45.440Z,61.67
2023-01-20T06:06:17.766Z,65.30
2023-01-20T06:08:45.376Z,67.90
2023-01-20T06:11:15.186Z,64.47
2023-01-20T06:13:46.799Z,66.50
2023-01-20T06:16:13.455Z,64.80
2023-01-20T06:18:44.619Z,65.10
2023-01-20T06:21:15.310Z,65.10
2023-01-20T06:23:44.819Z,76.60
2023-01-20T06:26:15.303Z,66.37
2023-01-20T06:28:41.996Z,64.47
2023-01-20T06:31:18.909Z,66.23
2023-01-20T06:33:45.673Z,67.83
2023-01-20T06:36:17.467Z,65.03
2023-01-20T06:38:48.489Z,77.03
2023-01-20T06:41:15.558Z,66.83
2023-01-20T06:43:45.363Z,66.63
2023-01-20T06:46:15.700Z,64.13
2023-01-20T06:48:43.488Z,69.27
2023-01-20T06:51:19.193Z,70.70
2023-01-20T06:53:46.692Z,63.67
2023-01-20T06:56:16.325Z,76.73
2023-01-20T06:58:43.200Z,68.83
2023-01-20T07:01:15.919Z,65.63
2023-01-20T07:03:45.941Z,63.00
2023-01-20T07:06:35.872Z,70.47
2023-01-20T07:09:02.769Z,62.23
2023-01-20T07:11:31.393Z,66.70
2023-01-20T07:13:58.452Z,64.30
2023-01-20T07:16:25.216Z,61.17
2023-01-20T07:18:52.700Z,62.40
2023-01-20T07:21:23.948Z,70.80
2023-01-20T07:23:51.971Z,67.27
2023-01-20T07:26:21.200Z,65.43
2023-01-20T07:28:48.383Z,65.43
2023-01-20T07:31:20.789Z,64.33
2023-01-20T07:33:47.852Z,61.33
2023-01-20T07:36:17.854Z,64.73
2023-01-20T07:38:48.545Z,59.47
2023-01-20T07:41:16.392Z,66.87
2023-01-20T07:43:45.495Z,65.23
2023-01-20T07:46:21.459Z,56.00
2023-01-20T07:48:48.162Z,59.93
2023-01-20T07:51:21.275Z,59.63
2023-01-20T07:53:50.974Z,61.87
2023-01-20T07:56:21.694Z,54.30
2023-01-20T07:58:52.842Z,56.20
2023-01-20T08:01:20.623Z,55.53
2023-01-20T08:03:47.971Z,58.00
2023-01-20T08:06:16.866Z,61.07
2023-01-20T08:08:43.855Z,57.40
2023-01-20T08:11:12.640Z,54.07
2023-01-20T08:13:39.854Z,54.97
2023-01-20T08:16:08.545Z,57.97
2023-01-20T08:18:35.606Z,55.17
2023-01-20T08:21:06.480Z,59.37
2023-01-20T08:23:34.197Z,54.73
2023-01-20T08:26:02.151Z,65.23
2023-01-20T08:28:29.740Z,61.13
2023-01-20T08:31:07.997Z,55.20
2023-01-20T08:33:35.119Z,77.77
2023-01-20T08:36:10.970Z,55.30
2023-01-20T08:38:38.227Z,64.37
2023-01-20T08:41:12.034Z,57.73
2023-01-20T08:43:38.967Z,54.43
2023-01-20T08:46:11.553Z,57.03
2023-01-20T08:48:39.359Z,60.77
2023-01-20T08:51:09.603Z,52.20
2023-01-20T08:53:36.399Z,56.83
2023-01-20T08:56:03.824Z,57.17
2023-01-20T08:58:34.862Z,55.53
2023-01-20T09:01:07.659Z,67.60
2023-01-20T09:03:34.294Z,59.07
2023-01-20T09:06:04.765Z,65.77
2023-01-20T09:08:31.562Z,63.20
2023-01-20T09:11:21.012Z,56.07
2023-01-20T09:13:47.898Z,52.80
2023-01-20T09:16:16.211Z,58.43
2023-01-20T09:18:43.336Z,53.53
2023-01-20T09:21:19.347Z,60.67
2023-01-20T09:23:48.004Z,54.10
2023-01-20T09:26:33.890Z,55.87
2023-01-20T09:29:11.439Z,61.10
2023-01-20T09:31:40.161Z,60.27
2023-01-20T09:34:07.041Z,66.30
2023-01-20T09:36:41.366Z,65.07
2023-01-20T09:39:27.668Z,61.00
2023-01-20T09:42:12.981Z,62.20
2023-01-20T09:45:09.375Z,60.10
2023-01-20T09:47:43.866Z,55.17
2023-01-20T09:50:43.510Z,58.77
2023-01-20T09:53:30.834Z,62.83
2023-01-20T09:55:59.919Z,54.10
2023-01-20T09:58:45.212Z,53.80
2023-01-20T10:01:24.547Z,68.20
2023-01-20T10:04:06.404Z,55.73
2023-01-20T10:06:39.550Z,57.43
2023-01-20T10:09:23.414Z,57.20
2023-01-20T10:11:51.847Z,58.20
2023-01-20T10:14:33.164Z,54.07
2023-01-20T10:17:21.018Z,52.50
2023-01-20T10:19:54.520Z,56.13
2023-01-20T10:22:41.330Z,57.40
2023-01-20T10:25:23.104Z,50.03
2023-01-20T10:27:58.721Z,49.93
2023-01-20T10:30:32.121Z,56.03
2023-01-20T10:33:22.852Z,53.90
2023-01-20T10:35:52.023Z,51.20
2023-01-20T10:38:46.065Z,44.47
2023-01-20T10:41:31.124Z,45.87
2023-01-20T10:43:58.708Z,46.97
2023-01-20T10:47:00.553Z,50.20
2023-01-20T10:50:18.641Z,40.90
2023-01-20T10:53:00.715Z,40.67
2023-01-20T10:55:50.749Z,42.33
2023-01-20T10:58:22.288Z,41.47
2023-01-20T11:00:50.033Z,41.20
2023-01-20T11:03:19.955Z,39.40
2023-01-20T11:05:48.005Z,37.43
2023-01-20T11:08:19.675Z,44.20
2023-01-20T11:10:47.688Z,40.80
2023-01-20T11:13:14.418Z,45.20
2023-01-20T11:15:48.934Z,39.77
2023-01-20T11:18:15.461Z,37.10
2023-01-20T11:20:53.590Z,36.50
2023-01-20T11:23:38.688Z,36.80
2023-01-20T11:26:21.578Z,37.57
2023-01-20T11:28:49.429Z,36.40
2023-01-20T11:31:16.461Z,34.47
2023-01-20T11:33:57.756Z,34.03
2023-01-20T11:36:25.807Z,33.77
2023-01-20T11:38:56.575Z,34.03
2023-01-20T11:41:23.107Z,35.77
2023-01-20T11:43:51.321Z,33.40
2023-01-20T11:46:29.980Z,31.33
2023-01-20T11:49:25.942Z,31.17
2023-01-20T11:51:54.936Z,30.73
2023-01-20T11:54:27.017Z,30.13
2023-01-20T11:57:10.639Z,35.37
2023-01-20T11:59:49.309Z,32.43
2023-01-20T12:02:24.642Z,37.13
2023-01-20T12:05:03.395Z,27.83
2023-01-20T12:07:43.312Z,32.97
2023-01-20T12:10:25.275Z,36.20
2023-01-20T12:12:56.866Z,29.93
2023-01-20T12:15:26.685Z,29.63
2023-01-20T12:18:13.000Z,24.83
2023-01-20T12:20:54.891Z,30.60
2023-01-20T12:23:46.581Z,23.60
2023-01-20T12:26:18.453Z,26.60
2023-01-20T12:28:59.167Z,19.20
2023-01-20T12:31:26.045Z,19.27
2023-01-20T12:34:03.450Z,19.17
2023-01-20T12:36:39.369Z,20.73
2023-01-20T12:39:12.121Z,19.90
2023-01-20T12:42:02.647Z,18.80
2023-01-20T12:44:38.194Z,18.57
2023-01-20T12:47:46.361Z,20.63
2023-01-20T12:50:23.882Z,17.53
2023-01-20T12:53:17.925Z,21.03
2023-01-20T12:55:52.578Z,20.47
2023-01-20T12:58:41.239Z,16.90
2023-01-20T13:01:14.953Z,23.53
2023-01-20T13:03:55.503Z,22.87
2023-01-20T13:06:39.406Z,22.30
2023-01-20T13:09:40.475Z,19.43
2023-01-20T13:12:19.301Z,20.10
2023-01-20T13:14:49.422Z,24.80
2023-01-20T13:17:38.734Z,20.03
2023-01-20T13:20:16.496Z,24.37
2023-01-20T13:23:04.518Z,19.60
2023-01-20T13:25:39.263Z,18.07
2023-01-20T13:28:22.068Z,17.00
2023-01-20T13:31:03.979Z,19.60
2023-01-20T13:36:42.957Z,15.87
2023-01-20T13:39:41.030Z,17.10
2023-01-20T13:42:37.919Z,16.30
2023-01-20T13:45:14.408Z,17.27
2023-01-20T13:48:06.004Z,58.00
2023-01-20T13:50:33.867Z,18.70
2023-01-20T13:53:04.747Z,14.77
2023-01-20T13:55:40.919Z,17.03
2023-01-20T13:58:37.012Z,16.63
2023-01-20T14:01:07.795Z,16.67
2023-01-20T14:03:36.737Z,16.53
2023-01-20T14:06:18.828Z,20.70
2023-01-20T14:08:50.449Z,15.13
2023-01-20T14:11:22.561Z,14.90
2023-01-20T14:13:53.551Z,11.40
2023-01-20T14:16:23.213Z,13.50
2023-01-20T14:18:50.111Z,14.27
2023-01-20T14:21:20.231Z,19.03
2023-01-20T14:23:47.037Z,25.67
2023-01-20T14:26:23.732Z,17.90
2023-01-20T14:29:00.930Z,18.47
2023-01-20T14:31:36.592Z,14.30
2023-01-20T14:34:19.860Z,18.43
2023-01-20T14:36:47.332Z,11.93
2023-01-20T14:39:25.841Z,16.37
2023-01-20T14:41:55.581Z,14.23
2023-01-20T14:44:28.201Z,12.17
2023-01-20T14:46:59.758Z,13.13
2023-01-20T14:49:39.277Z,14.23
2023-01-20T14:52:07.349Z,11.27
2023-01-20T14:54:38.246Z,11.17
2023-01-20T14:57:25.019Z,12.87
2023-01-20T15:00:15.812Z,14.90
2023-01-20T15:02:49.219Z,12.50
2023-01-20T15:05:29.954Z,15.57
2023-01-20T15:08:11.768Z,13.70
2023-01-20T15:10:49.216Z,14.30
2023-01-20T15:13:27.915Z,13.87
2023-01-20T15:16:28.411Z,13.63
2023-01-20T15:19:13.468Z,18.37
2023-01-20T15:21:42.003Z,18.40
2023-01-20T15:24:23.233Z,19.23
2023-01-20T15:26:52.399Z,15.90
2023-01-20T15:29:27.576Z,19.27
2023-01-20T15:31:56.168Z,18.57
2023-01-20T15:34:23.579Z,21.23
2023-01-20T15:36:51.260Z,16.90
2023-01-20T15:39:20.782Z,19.17
2023-01-20T15:41:48.692Z,21.27
2023-01-20T15:44:15.564Z,24.90
2023-01-20T15:46:42.325Z,19.60
2023-01-20T15:49:12.048Z,25.73
2023-01-20T15:51:45.232Z,19.27
2023-01-20T15:54:13.685Z,18.13
2023-01-20T15:56:42.004Z,19.10
2023-01-20T15:59:17.079Z,15.27
2023-01-20T16:01:49.821Z,18.33
2023-01-20T16:04:16.794Z,19.70
2023-01-20T16:06:52.896Z,16.50
2023-01-20T16:09:37.062Z,18.90
2023-01-20T16:12:07.170Z,19.23
2023-01-20T16:14:36.142Z,23.00
2023-01-20T16:17:12.857Z,21.93
2023-01-20T16:19:40.876Z,21.33
2023-01-20T16:22:08.681Z,24.30
2023-01-20T16:24:38.100Z,19.90
2023-01-20T16:27:16.913Z,16.83
2023-01-20T16:29:43.597Z,16.60
2023-01-20T16:32:10.341Z,18.10
2023-01-20T16:34:37.267Z,19.50
2023-01-20T16:37:06.424Z,18.70
2023-01-20T16:39:36.117Z,20.00
2023-01-20T16:42:05.410Z,21.83
2023-01-20T16:44:37.601Z,19.33
2023-01-20T16:47:21.872Z,19.90
2023-01-20T16:49:50.509Z,20.00
2023-01-20T16:52:17.475Z,21.20
2023-01-20T16:54:44.265Z,26.43
2023-01-20T16:57:11.062Z,21.63
2023-01-20T16:59:37.725Z,23.43
2023-01-20T17:02:12.123Z,20.13
2023-01-20T17:04:38.928Z,19.53
2023-01-20T17:07:08.378Z,17.27
2023-01-20T17:09:45.717Z,19.07
2023-01-20T17:12:12.426Z,20.00
2023-01-20T17:14:39.256Z,21.80
2023-01-20T17:17:17.615Z,19.80
2023-01-20T17:19:44.596Z,18.57
2023-01-20T17:22:11.551Z,23.37
2023-01-20T17:24:43.127Z,24.03
2023-01-20T17:27:10.106Z,31.53
2023-01-20T17:29:38.379Z,25.03
2023-01-20T17:32:15.283Z,23.80
2023-01-20T17:34:42.065Z,24.20
2023-01-20T17:37:09.727Z,26.20
2023-01-20T17:39:37.447Z,22.57
2023-01-20T17:42:04.475Z,24.77
2023-01-20T17:44:40.264Z,26.87
2023-01-20T17:47:08.104Z,26.33
2023-01-20T17:49:38.209Z,29.50
2023-01-20T17:52:05.951Z,27.07
2023-01-20T17:54:37.493Z,28.57
2023-01-20T17:57:04.143Z,35.73
2023-01-20T17:59:33.884Z,26.97
2023-01-20T18:02:06.585Z,31.50
2023-01-20T18:04:35.731Z,33.10
2023-01-20T18:07:09.078Z,27.53
2023-01-20T18:09:38.734Z,29.70
2023-01-20T18:12:08.479Z,26.60
2023-01-20T18:14:38.697Z,24.77
2023-01-20T18:17:05.607Z,26.43
2023-01-20T18:19:34.278Z,22.30
2023-01-20T18:22:05.725Z,30.93
2023-01-20T18:24:40.248Z,24.03
2023-01-20T18:27:06.949Z,31.00
2023-01-20T18:29:36.518Z,25.40
2023-01-20T18:32:05.678Z,25.37
2023-01-20T18:34:36.809Z,28.10
2023-01-20T18:37:11.057Z,28.03
2023-01-20T18:39:37.881Z,28.43
2023-01-20T18:42:07.304Z,23.17
2023-01-20T18:44:35.578Z,26.40
2023-01-20T18:47:11.114Z,28.40
2023-01-20T18:49:37.753Z,27.23
2023-01-20T18:52:14.899Z,24.50
2023-01-20T18:54:41.527Z,27.17
2023-01-20T18:57:09.211Z,22.67
2023-01-20T18:59:43.425Z,21.47
2023-01-20T19:02:10.828Z,24.70
2023-01-20T19:04:37.556Z,29.07
2023-01-20T19:07:12.785Z,24.80
2023-01-20T19:09:39.545Z,25.30
2023-01-20T19:12:08.891Z,24.43
2023-01-20T19:14:35.723Z,22.37
2023-01-20T19:17:08.376Z,26.80
2023-01-20T19:19:37.424Z,24.03
2023-01-20T19:22:06.929Z,27.03
2023-01-20T19:24:42.319Z,25.60
2023-01-20T19:27:09.257Z,25.87
2023-01-20T19:29:48.215Z,25.80
2023-01-20T19:32:14.830Z,24.83
2023-01-20T19:34:45.113Z,23.47
2023-01-20T19:37:17.062Z,24.00
2023-01-20T19:39:43.764Z,26.20
2023-01-20T19:42:10.433Z,20.00
2023-01-20T19:44:39.558Z,21.67
2023-01-20T19:47:06.225Z,24.23
2023-01-20T19:49:35.503Z,20.80
2023-01-20T19:52:06.782Z,21.40
2023-01-20T19:54:40.924Z,19.20
2023-01-20T19:57:07.568Z,19.07
2023-01-20T19:59:40.715Z,17.97
2023-01-20T20:02:10.553Z,21.40
2023-01-20T20:04:37.183Z,21.30
2023-01-20T20:07:06.779Z,18.77
2023-01-20T20:09:42.459Z,20.73
2023-01-20T20:12:09.147Z,21.73
2023-01-20T20:14:35.760Z,19.33
2023-01-20T20:17:03.352Z,22.30
2023-01-20T20:19:30.092Z,22.40
2023-01-20T20:21:58.618Z,22.03
2023-01-20T20:24:27.585Z,24.77
2023-01-20T20:26:54.297Z,25.57
2023-01-20T20:29:21.004Z,21.40
2023-01-20T20:31:47.767Z,20.10
2023-01-20T20:34:16.733Z,20.70
2023-01-20T20:36:43.500Z,29.37
2023-01-20T20:39:13.887Z,24.97
2023-01-20T20:41:40.803Z,30.30
2023-01-20T20:44:07.588Z,32.97
2023-01-20T20:46:34.303Z,25.57
2023-01-20T20:49:03.733Z,30.53
2023-01-20T20:51:32.425Z,26.80
2023-01-20T20:54:00.704Z,29.77
2023-01-20T20:56:31.366Z,24.47
2023-01-20T20:59:02.235Z,24.77
2023-01-20T21:01:31.056Z,23.80
2023-01-20T21:03:58.295Z,23.20
2023-01-20T21:06:25.162Z,21.70
2023-01-20T21:08:52.292Z,25.50
2023-01-20T21:11:20.505Z,25.30
2023-01-20T21:13:49.272Z,25.10
2023-01-20T21:16:23.392Z,22.83
2023-01-20T21:18:52.120Z,23.53
2023-01-20T21:21:19.536Z,24.00
2023-01-20T21:23:53.559Z,24.40
2023-01-20T21:26:20.959Z,24.57
2023-01-20T21:28:49.237Z,23.70
2023-01-20T21:31:21.545Z,20.00
2023-01-20T21:33:53.573Z,25.30
2023-01-20T21:36:20.862Z,20.80
2023-01-20T21:38:47.544Z,22.73
2023-01-20T21:41:17.903Z,21.87
2023-01-20T21:44:04.613Z,21.20
2023-01-20T21:46:38.955Z,24.00
2023-01-20T21:49:25.031Z,25.00
2023-01-20T21:52:10.269Z,26.00
2023-01-20T21:54:39.370Z,20.03
2023-01-20T21:57:05.998Z,19.80
2023-01-20T21:59:37.143Z,17.80
2023-01-20T22:02:11.505Z,17.50
2023-01-20T22:04:39.640Z,16.93
2023-01-20T22:07:08.664Z,21.27
2023-01-20T22:09:40.162Z,17.17
2023-01-20T22:12:07.290Z,18.40
2023-01-20T22:14:41.503Z,18.33
2023-01-20T22:17:12.367Z,21.07
2023-01-20T22:19:39.380Z,17.93
2023-01-20T22:22:06.376Z,19.23
2023-01-20T22:24:32.925Z,22.50
2023-01-20T22:26:59.972Z,20.73
2023-01-20T22:29:26.980Z,21.70
2023-01-20T22:31:55.291Z,19.27
2023-01-20T22:34:22.199Z,18.20
2023-01-20T22:36:48.791Z,17.30
2023-01-20T22:39:15.714Z,19.67
2023-01-20T22:41:42.619Z,24.23
2023-01-20T22:44:12.342Z,30.67
2023-01-20T22:46:38.957Z,26.40
2023-01-20T22:49:05.514Z,20.93
2023-01-20T22:51:32.179Z,29.00
2023-01-20T22:54:00.380Z,29.57
2023-01-20T22:56:31.885Z,30.93
2023-01-20T22:58:59.230Z,29.10
2023-01-20T23:01:32.402Z,28.93
2023-01-20T23:04:01.803Z,34.63
2023-01-20T23:06:30.644Z,30.30
2023-01-20T23:08:57.281Z,33.53
2023-01-20T23:11:24.022Z,33.00
2023-01-20T23:13:51.510Z,33.03
2023-01-20T23:16:22.397Z,34.57
2023-01-20T23:18:50.739Z,36.60
2023-01-20T23:21:17.978Z,32.80
2023-01-20T23:23:46.017Z,43.80
2023-01-20T23:26:17.772Z,42.37
2023-01-20T23:28:45.765Z,38.70
2023-01-20T23:31:14.850Z,39.73
2023-01-20T23:33:45.146Z,47.60
2023-01-20T23:36:23.784Z,43.70
2023-01-20T23:38:53.977Z,39.37
2023-01-20T23:41:20.635Z,39.27
2023-01-20T23:43:47.314Z,40.77
2023-01-20T23:46:16.373Z,42.10
2023-01-20T23:48:49.251Z,40.37
2023-01-20T23:51:18.326Z,42.43
2023-01-20T23:53:48.050Z,40.77
2023-01-20T23:56:20.591Z,39.80
2023-01-20T23:58:47.674Z,39.33
